createdAt,value
2023-05-11T00:00:41.358Z,56.42
2023-05-11T00:03:09.372Z,56.47
2023-05-11T00:05:38.815Z,56.37
2023-05-11T00:08:06.729Z,56.57
2023-05-11T00:10:36.116Z,56.37
2023-05-11T00:13:03.996Z,56.60
2023-05-11T00:15:31.926Z,56.37
2023-05-11T00:17:59.935Z,56.35
2023-05-11T00:20:27.962Z,56.29
2023-05-11T00:22:57.195Z,56.58
2023-05-11T00:25:25.072Z,56.50
2023-05-11T00:27:52.962Z,56.38
2023-05-11T00:30:21.172Z,56.55
2023-05-11T00:32:49.602Z,56.19
2023-05-11T00:35:17.441Z,56.14
2023-05-11T00:37:45.434Z,56.46
2023-05-11T00:40:14.882Z,56.42
2023-05-11T00:42:42.796Z,56.10
2023-05-11T00:45:11.397Z,56.49
2023-05-11T00:47:39.268Z,56.76
2023-05-11T00:50:08.577Z,56.76
2023-05-11T00:52:36.467Z,56.45
2023-05-11T00:55:04.546Z,56.53
2023-05-11T00:57:33.946Z,56.77
2023-05-11T01:00:03.011Z,56.39
2023-05-11T01:02:31.077Z,56.84
2023-05-11T01:05:11.432Z,56.60
2023-05-11T01:07:42.758Z,56.82
2023-05-11T01:10:15.268Z,56.93
2023-05-11T01:12:49.250Z,56.64
2023-05-11T01:15:20.396Z,56.57
2023-05-11T01:17:57.414Z,57.03
2023-05-11T01:20:26.837Z,57.12
2023-05-11T01:23:10.470Z,57.03
2023-05-11T01:25:49.588Z,57.01
2023-05-11T01:28:27.449Z,57.05
2023-05-11T01:30:58.571Z,57.04
2023-05-11T01:33:29.216Z,56.90
2023-05-11T01:35:57.937Z,57.13
2023-05-11T01:38:26.132Z,57.22
2023-05-11T01:40:57.838Z,57.06
2023-05-11T01:43:27.160Z,57.29
2023-05-11T01:45:55.475Z,57.47
2023-05-11T01:48:25.897Z,57.30
2023-05-11T01:50:53.801Z,57.20
2023-05-11T01:53:21.664Z,57.31
2023-05-11T01:55:49.576Z,57.79
2023-05-11T01:58:17.746Z,57.57
2023-05-11T02:00:45.684Z,57.60
2023-05-11T02:03:15.644Z,57.57
2023-05-11T02:05:45.225Z,57.40
2023-05-11T02:08:13.098Z,57.85
2023-05-11T02:10:41.241Z,57.92
2023-05-11T02:13:09.932Z,57.60
2023-05-11T02:15:38.798Z,57.83
2023-05-11T02:18:06.988Z,57.89
2023-05-11T02:20:34.907Z,57.97
2023-05-11T02:23:04.148Z,57.73
2023-05-11T02:25:32.072Z,57.99
2023-05-11T02:27:59.918Z,57.91
2023-05-11T02:30:28.206Z,57.81
2023-05-11T02:32:56.455Z,57.91
2023-05-11T02:35:26.735Z,57.63
2023-05-11T02:37:56.710Z,57.94
2023-05-11T02:40:29.206Z,57.87
2023-05-11T02:43:00.382Z,57.71
2023-05-11T02:45:29.404Z,57.79
2023-05-11T02:47:57.399Z,57.76
2023-05-11T02:50:25.626Z,57.66
2023-05-11T02:52:56.011Z,57.96
2023-05-11T02:55:23.867Z,57.75
2023-05-11T02:57:53.183Z,57.92
2023-05-11T03:00:21.554Z,58.00
2023-05-11T03:02:50.304Z,57.70
2023-05-11T03:05:18.312Z,57.57
2023-05-11T03:07:46.169Z,57.56
2023-05-11T03:10:14.149Z,57.97
2023-05-11T03:12:42.006Z,57.69
2023-05-11T03:15:12.815Z,57.82
2023-05-11T03:17:41.107Z,57.72
2023-05-11T03:20:09.766Z,57.72
2023-05-11T03:22:38.049Z,57.49
2023-05-11T03:25:06.666Z,57.49
2023-05-11T03:27:34.628Z,57.66
2023-05-11T03:30:02.570Z,57.43
2023-05-11T03:32:31.849Z,57.19
2023-05-11T03:34:59.751Z,57.71
2023-05-11T03:37:27.624Z,57.30
2023-05-11T03:39:57.571Z,57.74
2023-05-11T03:42:25.817Z,57.41
2023-05-11T03:44:55.934Z,57.69
2023-05-11T03:47:23.881Z,57.52
2023-05-11T03:49:53.169Z,57.65
2023-05-11T03:52:21.369Z,57.75
2023-05-11T03:54:51.374Z,57.46
2023-05-11T03:57:19.286Z,57.66
2023-05-11T03:59:47.723Z,57.47
2023-05-11T04:02:15.695Z,57.30
2023-05-11T04:04:43.681Z,57.24
2023-05-11T04:07:13.039Z,57.37
2023-05-11T04:09:40.929Z,57.47
2023-05-11T04:12:08.899Z,57.50
2023-05-11T04:14:36.783Z,57.45
2023-05-11T04:17:04.665Z,57.49
2023-05-11T04:19:32.759Z,57.77
2023-05-11T04:22:00.876Z,57.80
2023-05-11T04:24:30.185Z,57.62
2023-05-11T04:26:58.566Z,57.57
2023-05-11T04:29:26.612Z,57.48
2023-05-11T04:31:54.590Z,57.38
2023-05-11T04:34:25.659Z,57.16
2023-05-11T04:36:53.580Z,57.20
2023-05-11T04:39:21.857Z,57.31
2023-05-11T04:41:51.162Z,57.57
2023-05-11T04:44:19.050Z,57.61
2023-05-11T04:46:47.138Z,57.25
2023-05-11T04:49:19.640Z,57.53
2023-05-11T04:51:47.585Z,57.58
2023-05-11T04:54:15.542Z,57.25
2023-05-11T04:56:43.488Z,57.38
2023-05-11T04:59:12.744Z,57.71
2023-05-11T05:01:40.713Z,57.65
2023-05-11T05:04:09.069Z,57.25
2023-05-11T05:06:42.422Z,57.61
2023-05-11T05:09:15.118Z,57.43
2023-05-11T05:12:01.554Z,57.19
2023-05-11T05:14:34.314Z,57.09
2023-05-11T05:17:04.348Z,57.10
2023-05-11T05:19:35.558Z,57.12
2023-05-11T05:22:03.494Z,57.03
2023-05-11T05:24:31.431Z,57.44
2023-05-11T05:27:12.053Z,57.36
2023-05-11T05:29:41.716Z,57.05
2023-05-11T05:32:09.620Z,56.97
2023-05-11T05:34:37.505Z,57.39
2023-05-11T05:37:05.967Z,57.15
2023-05-11T05:39:33.869Z,57.50
2023-05-11T05:42:02.892Z,57.42
2023-05-11T05:44:30.871Z,56.98
2023-05-11T05:47:00.391Z,56.99
2023-05-11T05:49:28.328Z,57.38
2023-05-11T05:51:56.176Z,57.03
2023-05-11T05:54:24.097Z,57.37
2023-05-11T05:56:52.085Z,57.37
2023-05-11T05:59:23.360Z,56.88
2023-05-11T06:01:51.797Z,56.89
2023-05-11T06:04:21.114Z,57.13
2023-05-11T06:06:49.017Z,57.09
2023-05-11T06:09:16.911Z,57.26
2023-05-11T06:11:44.829Z,57.01
2023-05-11T06:14:12.761Z,56.84
2023-05-11T06:16:40.861Z,56.90
2023-05-11T06:19:09.607Z,57.11
2023-05-11T06:21:41.703Z,56.98
2023-05-11T06:24:09.717Z,56.96
2023-05-11T06:26:37.627Z,56.82
2023-05-11T06:29:05.600Z,56.71
2023-05-11T06:31:33.656Z,56.62
2023-05-11T06:34:01.811Z,56.38
2023-05-11T06:36:29.748Z,56.93
2023-05-11T06:38:59.086Z,56.91
2023-05-11T06:41:27.451Z,56.94
2023-05-11T06:43:55.566Z,56.94
2023-05-11T06:46:24.021Z,56.91
2023-05-11T06:48:52.185Z,56.79
2023-05-11T06:51:21.771Z,56.74
2023-05-11T06:53:49.811Z,56.83
2023-05-11T06:56:19.443Z,56.56
2023-05-11T06:58:47.639Z,56.35
2023-05-11T07:01:16.219Z,55.91
2023-05-11T07:03:44.259Z,56.37
2023-05-11T07:06:12.336Z,56.17
2023-05-11T07:08:40.723Z,56.17
2023-05-11T07:11:08.653Z,56.07
2023-05-11T07:13:37.937Z,56.45
2023-05-11T07:16:06.296Z,55.88
2023-05-11T07:18:34.301Z,55.30
2023-05-11T07:21:02.496Z,55.53
2023-05-11T07:23:30.492Z,55.45
2023-05-11T07:25:58.711Z,55.30
2023-05-11T07:28:27.040Z,55.25
2023-05-11T07:30:57.336Z,54.85
2023-05-11T07:33:25.491Z,54.67
2023-05-11T07:35:53.765Z,54.79
2023-05-11T07:38:21.952Z,54.75
2023-05-11T07:40:50.000Z,55.28
2023-05-11T07:43:18.267Z,55.11
2023-05-11T07:45:46.255Z,55.09
2023-05-11T07:48:15.776Z,55.58
2023-05-11T07:50:43.900Z,55.21
2023-05-11T07:53:12.004Z,55.37
2023-05-11T07:55:40.153Z,55.23
2023-05-11T07:58:08.273Z,55.25
2023-05-11T08:00:36.147Z,55.32
2023-05-11T08:03:04.344Z,55.73
2023-05-11T08:05:37.450Z,55.30
2023-05-11T08:08:05.803Z,55.24
2023-05-11T08:10:33.739Z,55.26
2023-05-11T08:13:01.784Z,55.31
2023-05-11T08:15:30.120Z,55.14
2023-05-11T08:17:58.144Z,55.15
2023-05-11T08:20:26.237Z,55.59
2023-05-11T08:22:55.494Z,55.52
2023-05-11T08:25:23.458Z,55.35
2023-05-11T08:27:51.408Z,55.61
2023-05-11T08:30:20.072Z,55.28
2023-05-11T08:32:58.016Z,55.71
2023-05-11T08:35:26.697Z,55.33
2023-05-11T08:37:55.968Z,55.14
2023-05-11T08:40:24.021Z,54.62
2023-05-11T08:42:52.023Z,53.80
2023-05-11T08:45:20.242Z,53.72
2023-05-11T08:47:48.397Z,53.79
2023-05-11T08:50:17.139Z,53.96
2023-05-11T08:52:45.146Z,53.68
2023-05-11T08:55:14.551Z,53.29
2023-05-11T08:57:42.612Z,53.27
2023-05-11T09:00:11.262Z,53.15
2023-05-11T09:02:39.216Z,52.94
2023-05-11T09:05:07.965Z,53.10
2023-05-11T09:07:36.019Z,53.04
2023-05-11T09:10:04.302Z,52.97
2023-05-11T09:12:33.605Z,52.73
2023-05-11T09:15:02.529Z,52.63
2023-05-11T09:17:30.863Z,52.46
2023-05-11T09:20:00.612Z,52.37
2023-05-11T09:22:30.871Z,52.17
2023-05-11T09:25:01.766Z,52.57
2023-05-11T09:27:29.809Z,52.80
2023-05-11T09:30:01.206Z,52.79
2023-05-11T09:32:29.121Z,52.15
2023-05-11T09:34:57.712Z,52.00
2023-05-11T09:37:25.670Z,52.18
2023-05-11T09:40:25.036Z,52.28
2023-05-11T09:42:43.361Z,52.11
2023-05-11T09:45:13.071Z,52.03
2023-05-11T09:47:41.363Z,51.87
2023-05-11T09:50:17.731Z,52.02
2023-05-11T09:52:52.136Z,51.50
2023-05-11T09:55:20.756Z,51.25
2023-05-11T09:57:54.477Z,50.84
2023-05-11T10:00:25.519Z,50.34
2023-05-11T10:03:03.841Z,49.97
2023-05-11T10:05:32.607Z,50.24
2023-05-11T10:08:00.705Z,50.29
2023-05-11T10:10:29.519Z,50.41
2023-05-11T10:12:57.606Z,50.31
2023-05-11T10:15:28.609Z,50.41
2023-05-11T10:17:57.163Z,50.31
2023-05-11T10:20:25.392Z,49.91
2023-05-11T10:22:55.162Z,50.32
2023-05-11T10:25:23.586Z,50.12
2023-05-11T10:27:51.703Z,50.14
2023-05-11T10:30:20.013Z,50.31
2023-05-11T10:32:49.599Z,50.33
2023-05-11T10:35:17.585Z,50.33
2023-05-11T10:37:46.500Z,50.29
2023-05-11T10:40:14.818Z,50.25
2023-05-11T10:43:22.933Z,49.66
2023-05-11T10:45:53.525Z,49.61
2023-05-11T10:48:45.749Z,49.01
2023-05-11T10:51:41.487Z,48.45
2023-05-11T10:54:21.658Z,47.88
2023-05-11T10:57:13.640Z,47.67
2023-05-11T10:59:53.044Z,47.40
2023-05-11T11:02:21.060Z,47.26
2023-05-11T11:04:51.638Z,47.00
2023-05-11T11:07:21.026Z,46.78
2023-05-11T11:09:53.293Z,46.62
2023-05-11T11:12:21.222Z,45.93
2023-05-11T11:14:55.958Z,46.14
2023-05-11T11:17:29.306Z,46.09
2023-05-11T11:20:01.179Z,46.06
2023-05-11T11:22:46.838Z,46.30
2023-05-11T11:25:15.899Z,47.29
2023-05-11T11:27:57.184Z,47.44
2023-05-11T11:30:25.561Z,48.19
2023-05-11T11:32:54.162Z,47.14
2023-05-11T11:35:49.021Z,46.77
2023-05-11T11:38:18.450Z,47.42
2023-05-11T11:40:51.291Z,47.23
2023-05-11T11:43:20.637Z,47.18
2023-05-11T11:45:52.415Z,46.45
2023-05-11T11:48:24.545Z,46.00
2023-05-11T11:51:04.194Z,45.39
2023-05-11T11:54:06.821Z,44.53
2023-05-11T11:56:55.617Z,44.15
2023-05-11T11:59:23.492Z,43.77
2023-05-11T12:01:52.895Z,43.88
2023-05-11T12:04:52.369Z,43.48
2023-05-11T12:07:22.734Z,43.32
2023-05-11T12:09:52.803Z,42.93
2023-05-11T12:12:21.322Z,42.68
2023-05-11T12:14:50.008Z,42.81
2023-05-11T12:17:25.304Z,42.46
2023-05-11T12:19:53.492Z,41.57
2023-05-11T12:22:26.081Z,40.66
2023-05-11T12:24:58.265Z,39.65
2023-05-11T12:27:28.145Z,39.45
2023-05-11T12:29:57.336Z,39.05
2023-05-11T12:32:29.276Z,38.54
2023-05-11T12:35:01.495Z,39.66
2023-05-11T12:37:31.041Z,39.57
2023-05-11T12:39:59.572Z,39.17
2023-05-11T12:42:27.638Z,39.63
2023-05-11T12:44:55.761Z,38.97
2023-05-11T12:47:24.261Z,38.29
2023-05-11T12:49:53.156Z,38.56
2023-05-11T12:52:21.011Z,38.32
2023-05-11T12:54:52.357Z,38.05
2023-05-11T12:57:25.068Z,37.91
2023-05-11T13:00:07.357Z,38.28
2023-05-11T13:02:35.477Z,38.38
2023-05-11T13:05:11.869Z,38.37
2023-05-11T13:07:39.827Z,38.23
2023-05-11T13:10:10.169Z,37.64
2023-05-11T13:12:38.487Z,37.33
2023-05-11T13:15:07.809Z,36.96
2023-05-11T13:17:36.563Z,37.51
2023-05-11T13:20:20.074Z,38.04
2023-05-11T13:22:48.225Z,36.96
2023-05-11T13:25:19.761Z,37.26
2023-05-11T13:27:48.056Z,37.05
2023-05-11T13:30:16.188Z,36.15
2023-05-11T13:32:44.168Z,35.50
2023-05-11T13:35:12.209Z,35.69
2023-05-11T13:37:41.961Z,36.30
2023-05-11T13:40:11.066Z,35.66
2023-05-11T13:42:41.646Z,36.21
2023-05-11T13:45:10.504Z,35.96
2023-05-11T13:47:38.397Z,35.44
2023-05-11T13:50:07.530Z,36.04
2023-05-11T13:52:35.452Z,35.94
2023-05-11T13:55:03.460Z,35.28
2023-05-11T13:57:31.445Z,35.22
2023-05-11T14:00:00.757Z,36.12
2023-05-11T14:02:31.864Z,36.22
2023-05-11T14:05:00.167Z,36.45
2023-05-11T14:07:45.582Z,35.94
2023-05-11T14:10:15.576Z,35.63
2023-05-11T14:12:44.085Z,35.84
2023-05-11T14:15:13.600Z,36.63
2023-05-11T14:17:43.388Z,37.41
2023-05-11T14:20:13.075Z,38.11
2023-05-11T14:22:41.540Z,37.42
2023-05-11T14:25:09.904Z,36.90
2023-05-11T14:27:38.153Z,35.86
2023-05-11T14:30:07.764Z,35.88
2023-05-11T14:32:37.078Z,35.74
2023-05-11T14:35:06.982Z,35.09
2023-05-11T14:37:35.335Z,35.08
2023-05-11T14:40:03.283Z,35.09
2023-05-11T14:42:31.364Z,35.24
2023-05-11T14:44:59.252Z,35.08
2023-05-11T14:47:27.159Z,34.75
2023-05-11T14:49:56.596Z,33.97
2023-05-11T14:52:24.541Z,34.25
2023-05-11T14:54:52.459Z,33.72
2023-05-11T14:57:20.552Z,32.98
2023-05-11T14:59:59.011Z,32.55
2023-05-11T15:02:27.850Z,32.55
2023-05-11T15:04:57.277Z,33.66
2023-05-11T15:07:25.177Z,33.46
2023-05-11T15:09:53.795Z,33.83
2023-05-11T15:12:24.912Z,34.43
2023-05-11T15:14:53.151Z,34.27
2023-05-11T15:17:21.353Z,35.19
2023-05-11T15:19:49.722Z,35.60
2023-05-11T15:22:19.466Z,36.18
2023-05-11T15:24:47.589Z,36.51
2023-05-11T15:27:15.623Z,36.20
2023-05-11T15:29:46.635Z,36.56
2023-05-11T15:32:15.213Z,36.59
2023-05-11T15:34:58.076Z,36.64
2023-05-11T15:37:28.738Z,37.26
2023-05-11T15:39:56.852Z,37.68
2023-05-11T15:42:24.922Z,38.59
2023-05-11T15:45:00.340Z,39.35
2023-05-11T15:47:28.415Z,39.64
2023-05-11T15:49:57.166Z,39.96
2023-05-11T15:52:25.123Z,40.25
2023-05-11T15:54:54.722Z,40.36
2023-05-11T15:57:22.660Z,40.86
2023-05-11T15:59:53.288Z,41.19
2023-05-11T16:02:21.298Z,41.44
2023-05-11T16:04:49.291Z,41.78
2023-05-11T16:07:17.197Z,41.90
2023-05-11T16:09:45.132Z,41.98
2023-05-11T16:12:14.369Z,41.87
2023-05-11T16:14:42.274Z,41.93
2023-05-11T16:17:10.199Z,41.81
2023-05-11T16:19:38.292Z,42.03
2023-05-11T16:22:06.294Z,42.46
2023-05-11T16:24:34.820Z,42.58
2023-05-11T16:27:03.340Z,43.04
2023-05-11T16:29:32.624Z,42.87
2023-05-11T16:32:00.841Z,43.18
2023-05-11T16:34:28.826Z,43.22
2023-05-11T16:36:58.761Z,43.20
2023-05-11T16:39:27.324Z,42.98
2023-05-11T16:41:55.210Z,43.00
2023-05-11T16:44:23.364Z,43.21
2023-05-11T16:46:52.868Z,43.33
2023-05-11T16:49:21.399Z,43.37
2023-05-11T16:51:49.620Z,43.44
2023-05-11T16:54:17.940Z,42.79
2023-05-11T16:56:46.186Z,42.34
2023-05-11T16:59:17.851Z,42.08
2023-05-11T17:01:49.869Z,41.81
2023-05-11T17:04:19.622Z,41.47
2023-05-11T17:06:47.575Z,41.02
2023-05-11T17:09:15.507Z,40.88
2023-05-11T17:11:43.408Z,40.72
2023-05-11T17:14:11.455Z,40.16
2023-05-11T17:16:39.504Z,40.17
2023-05-11T17:19:08.303Z,40.34
2023-05-11T17:21:38.066Z,40.59
2023-05-11T17:24:06.721Z,40.68
2023-05-11T17:26:46.533Z,41.02
2023-05-11T17:29:16.537Z,41.28
2023-05-11T17:31:49.149Z,41.56
2023-05-11T17:34:17.632Z,41.72
2023-05-11T17:36:47.516Z,41.81
2023-05-11T17:39:17.299Z,42.21
2023-05-11T17:41:45.346Z,42.43
2023-05-11T17:44:13.891Z,42.25
2023-05-11T17:46:41.945Z,42.20
2023-05-11T17:49:09.965Z,42.29
2023-05-11T17:51:37.850Z,42.41
2023-05-11T17:54:10.325Z,42.74
2023-05-11T17:56:38.314Z,43.10
2023-05-11T17:59:06.438Z,43.23
2023-05-11T18:01:34.734Z,43.23
2023-05-11T18:04:04.500Z,43.37
2023-05-11T18:06:33.301Z,43.73
2023-05-11T18:09:01.520Z,44.14
2023-05-11T18:11:31.563Z,44.71
2023-05-11T18:13:59.535Z,45.10
2023-05-11T18:16:28.356Z,45.58
2023-05-11T18:18:58.024Z,45.77
2023-05-11T18:21:28.940Z,46.04
2023-05-11T18:23:57.034Z,45.89
2023-05-11T18:26:26.450Z,45.73
2023-05-11T18:28:55.805Z,45.70
2023-05-11T18:31:23.785Z,45.84
2023-05-11T18:33:51.705Z,45.62
2023-05-11T18:36:19.574Z,45.79
2023-05-11T18:38:48.899Z,46.29
2023-05-11T18:41:16.879Z,46.51
2023-05-11T18:43:45.126Z,46.49
2023-05-11T18:46:14.563Z,46.83
2023-05-11T18:48:42.567Z,46.86
2023-05-11T18:51:11.041Z,46.84
2023-05-11T18:53:39.376Z,46.95
2023-05-11T18:56:07.252Z,47.29
2023-05-11T18:58:35.156Z,47.17
2023-05-11T19:01:03.375Z,47.16
2023-05-11T19:03:33.308Z,47.24
2023-05-11T19:06:01.894Z,47.52
2023-05-11T19:08:29.948Z,47.60
2023-05-11T19:10:57.988Z,47.75
2023-05-11T19:13:26.053Z,47.90
2023-05-11T19:15:54.190Z,47.55
2023-05-11T19:18:22.304Z,47.75
2023-05-11T19:20:51.726Z,47.62
2023-05-11T19:23:19.757Z,47.99
2023-05-11T19:25:47.697Z,48.31
2023-05-11T19:28:15.794Z,48.12
2023-05-11T19:30:43.662Z,48.14
2023-05-11T19:33:11.868Z,48.72
2023-05-11T19:35:40.511Z,48.57
2023-05-11T19:38:10.242Z,48.57
2023-05-11T19:40:46.073Z,49.01
2023-05-11T19:43:14.596Z,48.82
2023-05-11T19:45:43.696Z,49.23
2023-05-11T19:48:11.630Z,49.02
2023-05-11T19:50:39.516Z,49.40
2023-05-11T19:53:07.532Z,49.58
2023-05-11T19:55:36.752Z,49.63
2023-05-11T19:58:04.666Z,49.73
2023-05-11T20:00:32.635Z,49.73
2023-05-11T20:03:01.183Z,49.75
2023-05-11T20:05:29.159Z,49.76
2023-05-11T20:07:57.056Z,49.67
2023-05-11T20:10:25.195Z,49.98
2023-05-11T20:12:54.566Z,49.94
2023-05-11T20:15:22.767Z,50.00
2023-05-11T20:17:51.040Z,49.87
2023-05-11T20:20:19.341Z,50.09
2023-05-11T20:22:47.535Z,50.08
2023-05-11T20:25:18.764Z,50.10
2023-05-11T20:27:47.121Z,50.43
2023-05-11T20:30:16.908Z,50.75
2023-05-11T20:35:15.902Z,50.61
2023-05-11T20:37:43.824Z,50.59
2023-05-11T20:40:12.909Z,50.70
2023-05-11T20:42:40.925Z,50.85
2023-05-11T20:45:10.002Z,50.93
2023-05-11T20:47:39.346Z,50.84
2023-05-11T20:50:11.100Z,51.13
2023-05-11T20:52:38.998Z,50.80
2023-05-11T20:55:08.179Z,50.75
2023-05-11T20:57:36.101Z,50.71
2023-05-11T21:00:07.413Z,50.74
2023-05-11T21:02:35.448Z,51.13
2023-05-11T21:05:04.892Z,50.92
2023-05-11T21:07:32.776Z,51.00
2023-05-11T21:10:01.714Z,50.98
2023-05-11T21:12:29.610Z,51.00
2023-05-11T21:14:57.478Z,51.52
2023-05-11T21:17:25.512Z,51.11
2023-05-11T21:19:53.446Z,51.53
2023-05-11T21:22:22.897Z,51.55
2023-05-11T21:24:50.782Z,51.29
2023-05-11T21:27:18.763Z,51.73
2023-05-11T21:29:46.628Z,51.40
2023-05-11T21:32:14.573Z,51.80
2023-05-11T21:34:42.517Z,51.79
2023-05-11T21:37:10.385Z,51.80
2023-05-11T21:39:39.641Z,51.91
2023-05-11T21:42:07.573Z,51.61
2023-05-11T21:44:35.550Z,51.79
2023-05-11T21:47:03.427Z,52.01
2023-05-11T21:49:31.291Z,52.10
2023-05-11T21:51:59.146Z,52.20
2023-05-11T21:54:27.848Z,51.94
2023-05-11T21:56:57.074Z,52.02
2023-05-11T21:59:26.736Z,52.15
2023-05-11T22:01:55.391Z,52.22
2023-05-11T22:04:23.586Z,51.96
2023-05-11T22:06:51.464Z,52.10
2023-05-11T22:09:19.356Z,52.15
2023-05-11T22:11:47.232Z,52.03
2023-05-11T22:14:16.456Z,52.20
2023-05-11T22:16:44.349Z,52.48
2023-05-11T22:19:12.658Z,52.14
2023-05-11T22:21:41.208Z,52.43
2023-05-11T22:24:09.594Z,52.62
2023-05-11T22:26:37.492Z,52.33
2023-05-11T22:29:05.503Z,52.78
2023-05-11T22:31:34.829Z,52.80
2023-05-11T22:34:02.737Z,52.89
2023-05-11T22:36:30.587Z,53.07
2023-05-11T22:38:58.496Z,53.02
2023-05-11T22:41:26.436Z,53.14
2023-05-11T22:43:54.426Z,53.29
2023-05-11T22:46:22.523Z,53.42
2023-05-11T22:48:51.829Z,53.43
2023-05-11T22:51:19.807Z,53.51
2023-05-11T22:53:48.285Z,53.46
2023-05-11T22:56:16.939Z,53.40
2023-05-11T22:58:44.829Z,53.27
2023-05-11T23:01:14.217Z,53.32
2023-05-11T23:03:42.233Z,53.13
2023-05-11T23:06:12.333Z,53.40
2023-05-11T23:08:40.500Z,53.19
2023-05-11T23:11:08.493Z,53.40
2023-05-11T23:13:36.365Z,53.11
2023-05-11T23:16:04.633Z,53.36
2023-05-11T23:18:32.890Z,53.49
2023-05-11T23:21:01.143Z,53.46
2023-05-11T23:23:30.382Z,53.27
2023-05-11T23:25:58.392Z,53.38
2023-05-11T23:28:26.364Z,53.40
2023-05-11T23:30:54.240Z,53.13
2023-05-11T23:33:22.843Z,53.16
2023-05-11T23:35:50.733Z,53.38
2023-05-11T23:38:18.608Z,53.26
2023-05-11T23:40:47.834Z,53.19
2023-05-11T23:43:15.707Z,53.28
2023-05-11T23:45:43.594Z,53.05
2023-05-11T23:48:11.745Z,53.27
2023-05-11T23:50:39.680Z,53.19
2023-05-11T23:53:08.287Z,53.43
2023-05-11T23:55:36.155Z,53.21
2023-05-11T23:58:05.360Z,53.39
